createdAt,value
2022-10-28T00:00:19.850Z,95925.06
2022-10-28T00:03:28.328Z,95930.19
2022-10-28T00:06:38.453Z,95927.38
2022-10-28T00:09:46.908Z,95925.41
2022-10-28T00:12:55.411Z,95928.06
2022-10-28T00:16:10.339Z,95929.38
2022-10-28T00:19:19.184Z,95926.72
2022-10-28T00:22:29.554Z,95922.91
2022-10-28T00:25:37.687Z,95919.75
2022-10-28T00:28:48.884Z,95919.09
2022-10-28T00:31:57.105Z,95920.56
2022-10-28T00:35:06.660Z,95925.06
2022-10-28T00:38:16.213Z,95926.03
2022-10-28T00:41:27.541Z,95918.06
2022-10-28T00:44:56.362Z,95921.09
2022-10-28T00:48:07.394Z,95921.56
2022-10-28T00:51:17.750Z,95914.28
2022-10-28T00:54:28.869Z,95916.09
2022-10-28T00:57:40.405Z,95913.59
2022-10-28T01:00:48.585Z,95905.16
2022-10-28T01:03:58.985Z,95898.19
2022-10-28T01:07:07.983Z,95901.16
2022-10-28T01:10:18.060Z,95897.66
2022-10-28T01:13:41.664Z,95896.19
2022-10-28T01:17:09.505Z,95891.38
2022-10-28T01:21:15.098Z,95890.69
2022-10-28T01:24:57.625Z,95893.69
2022-10-28T01:28:55.121Z,95886.06
2022-10-28T01:32:13.389Z,95893.69
2022-10-28T01:35:32.271Z,95883.91
2022-10-28T01:38:52.938Z,95882.25
2022-10-28T01:42:21.680Z,95883.56
2022-10-28T01:45:38.271Z,95881.94
2022-10-28T01:48:55.379Z,95886.88
2022-10-28T01:52:07.911Z,95892.88
2022-10-28T01:55:22.540Z,95890.88
2022-10-28T01:58:34.832Z,95884.91
2022-10-28T02:01:43.604Z,95882.25
2022-10-28T02:05:03.081Z,95887.03
2022-10-28T02:08:36.969Z,95885.22
2022-10-28T02:12:12.186Z,95880.75
2022-10-28T02:15:39.642Z,95879.59
2022-10-28T02:19:02.423Z,95880.41
2022-10-28T02:22:22.308Z,95880.75
2022-10-28T02:25:40.565Z,95879.91
2022-10-28T02:28:58.164Z,95876.41
2022-10-28T02:32:12.487Z,95866.97
2022-10-28T02:35:31.812Z,95874.28
2022-10-28T02:38:50.294Z,95870.94
2022-10-28T02:42:04.885Z,95869.13
2022-10-28T02:45:19.093Z,95877.25
2022-10-28T02:48:34.661Z,95873.13
2022-10-28T02:51:49.926Z,95877.94
2022-10-28T02:55:04.505Z,95880.75
2022-10-28T02:58:13.391Z,95878.59
2022-10-28T03:01:21.772Z,95876.94
2022-10-28T03:04:31.076Z,95873.78
2022-10-28T03:07:39.360Z,95874.13
2022-10-28T03:10:48.961Z,95873.78
2022-10-28T03:13:57.178Z,95870.28
2022-10-28T03:17:05.724Z,95872.31
2022-10-28T03:20:14.601Z,95872.47
2022-10-28T03:23:22.785Z,95868.81
2022-10-28T03:26:32.302Z,95865.31
2022-10-28T03:29:44.970Z,95866.63
2022-10-28T03:32:54.787Z,95864.81
2022-10-28T03:36:03.301Z,95864.00
2022-10-28T03:39:11.836Z,95858.34
2022-10-28T03:42:21.363Z,95864.00
2022-10-28T03:48:42.745Z,95877.41
2022-10-28T03:51:50.980Z,95871.47
2022-10-28T03:54:59.744Z,95874.28
2022-10-28T03:58:09.341Z,95869.97
2022-10-28T04:01:18.031Z,95867.63
2022-10-28T04:04:29.858Z,95868.00
2022-10-28T04:07:39.095Z,95868.00
2022-10-28T04:10:48.508Z,95874.97
2022-10-28T04:13:58.248Z,95877.25
2022-10-28T04:17:06.482Z,95882.72
2022-10-28T04:20:14.857Z,95877.59
2022-10-28T04:23:23.084Z,95875.94
2022-10-28T04:26:31.937Z,95868.31
2022-10-28T04:29:41.614Z,95872.94
2022-10-28T04:32:49.933Z,95873.59
2022-10-28T04:35:58.543Z,95870.28
2022-10-28T04:39:06.820Z,95873.97
2022-10-28T04:42:15.237Z,95880.91
2022-10-28T04:45:24.936Z,95876.09
2022-10-28T04:48:33.318Z,95880.03
2022-10-28T04:51:41.601Z,95871.06
2022-10-28T04:54:49.995Z,95868.59
2022-10-28T04:58:00.337Z,95874.38
2022-10-28T05:01:11.782Z,95873.72
2022-10-28T05:04:20.271Z,95865.44
2022-10-28T05:07:28.687Z,95867.78
2022-10-28T05:10:36.942Z,95865.75
2022-10-28T05:13:46.237Z,95858.00
2022-10-28T05:16:56.010Z,95865.59
2022-10-28T05:20:05.406Z,95867.94
2022-10-28T05:23:13.829Z,95864.44
2022-10-28T05:26:22.165Z,95864.59
2022-10-28T05:29:33.346Z,95863.59
2022-10-28T05:32:43.229Z,95861.63
2022-10-28T05:35:52.065Z,95861.63
2022-10-28T05:39:00.286Z,95859.97
2022-10-28T05:42:08.505Z,95853.47
2022-10-28T05:45:17.020Z,95855.97
2022-10-28T05:48:27.159Z,95855.97
2022-10-28T05:51:35.627Z,95856.13
2022-10-28T05:54:43.924Z,95854.03
2022-10-28T05:57:53.843Z,95856.03
2022-10-28T06:01:02.302Z,95855.88
2022-10-28T06:04:12.101Z,95864.97
2022-10-28T06:07:20.538Z,95866.63
2022-10-28T06:10:29.258Z,95864.81
2022-10-28T06:13:36.062Z,95873.59
2022-10-28T06:16:45.601Z,95863.63
2022-10-28T06:19:55.314Z,95868.09
2022-10-28T06:23:03.638Z,95865.72
2022-10-28T06:26:12.218Z,95871.84
2022-10-28T06:29:20.588Z,95870.63
2022-10-28T06:32:28.980Z,95877.72
2022-10-28T06:35:38.805Z,95878.63
2022-10-28T06:38:47.057Z,95880.56
2022-10-28T06:41:55.370Z,95881.16
2022-10-28T06:45:04.866Z,95880.09
2022-10-28T06:48:17.384Z,95879.28
2022-10-28T06:51:27.241Z,95885.47
2022-10-28T06:54:35.593Z,95889.84
2022-10-28T06:57:43.914Z,95883.66
2022-10-28T07:00:53.096Z,95885.13
2022-10-28T07:04:01.565Z,95882.38
2022-10-28T07:07:11.429Z,95886.81
2022-10-28T07:10:19.797Z,95885.19
2022-10-28T07:13:28.951Z,95887.41
2022-10-28T07:16:37.554Z,95878.47
2022-10-28T07:19:45.718Z,95885.50
2022-10-28T07:22:58.705Z,95895.22
2022-10-28T07:26:07.580Z,95893.94
2022-10-28T07:29:16.034Z,95903.50
2022-10-28T07:32:24.325Z,95908.97
2022-10-28T07:35:32.939Z,95908.28
2022-10-28T07:38:42.578Z,95907.31
2022-10-28T07:41:50.774Z,95916.13
2022-10-28T07:44:58.979Z,95907.66
2022-10-28T07:48:08.299Z,95909.75
2022-10-28T07:51:17.304Z,95917.38
2022-10-28T07:54:27.140Z,95908.00
2022-10-28T07:57:36.260Z,95918.78
2022-10-28T08:00:44.421Z,95922.44
2022-10-28T08:03:52.758Z,95916.13
2022-10-28T08:07:01.085Z,95907.19
2022-10-28T08:10:11.260Z,95920.47
2022-10-28T08:13:19.626Z,95923.84
2022-10-28T08:16:29.061Z,95914.38
2022-10-28T08:19:37.603Z,95913.97
2022-10-28T08:22:45.929Z,95909.44
2022-10-28T08:25:56.526Z,95912.47
2022-10-28T08:29:04.726Z,95918.78
2022-10-28T08:32:13.098Z,95908.34
2022-10-28T08:35:21.578Z,95912.34
2022-10-28T08:38:30.028Z,95910.69
2022-10-28T08:41:46.406Z,95913.06
2022-10-28T08:45:21.207Z,95910.78
2022-10-28T08:48:34.776Z,95910.91
2022-10-28T08:51:52.616Z,95909.25
2022-10-28T08:55:07.507Z,95906.13
2022-10-28T08:58:26.312Z,95909.03
2022-10-28T09:01:45.771Z,95909.13
2022-10-28T09:05:03.122Z,95899.94
2022-10-28T09:08:22.555Z,95899.06
2022-10-28T09:12:06.659Z,95893.47
2022-10-28T09:15:33.232Z,95897.66
2022-10-28T09:18:53.969Z,95906.72
2022-10-28T09:22:21.945Z,95895.75
2022-10-28T09:25:40.329Z,95901.78
2022-10-28T09:29:05.563Z,95902.34
2022-10-28T09:32:27.086Z,95914.97
2022-10-28T09:35:42.965Z,95912.97
2022-10-28T09:38:57.258Z,95912.88
2022-10-28T09:42:05.943Z,95915.94
2022-10-28T09:45:20.947Z,95919.56
2022-10-28T09:48:35.429Z,95920.22
2022-10-28T09:51:53.863Z,95907.91
2022-10-28T09:55:17.177Z,95897.56
2022-10-28T09:58:25.979Z,95897.22
2022-10-28T10:01:37.263Z,95899.44
2022-10-28T10:04:46.965Z,95908.88
2022-10-28T10:08:00.338Z,95899.56
2022-10-28T10:11:23.680Z,95897.91
2022-10-28T10:14:43.292Z,95913.03
2022-10-28T10:17:52.550Z,95902.06
2022-10-28T10:21:02.713Z,95907.50
2022-10-28T10:24:37.891Z,95903.78
2022-10-28T10:27:53.071Z,95900.09
2022-10-28T10:31:05.156Z,95895.91
2022-10-28T10:34:25.117Z,95896.63
2022-10-28T10:37:37.669Z,95896.81
2022-10-28T10:40:51.666Z,95894.00
2022-10-28T10:44:00.018Z,95895.72
2022-10-28T10:47:21.074Z,95898.09
2022-10-28T10:50:32.979Z,95892.00
2022-10-28T10:53:48.274Z,95888.88
2022-10-28T10:57:08.339Z,95889.63
2022-10-28T11:00:23.370Z,95880.09
2022-10-28T11:03:36.740Z,95883.72
2022-10-28T11:06:51.569Z,95880.31
2022-10-28T11:10:02.869Z,95878.59
2022-10-28T11:13:28.256Z,95868.41
2022-10-28T11:16:50.831Z,95853.34
2022-10-28T11:20:08.388Z,95861.53
2022-10-28T11:23:51.065Z,95861.63
2022-10-28T11:27:18.120Z,95864.72
2022-10-28T11:30:47.377Z,95865.53
2022-10-28T11:34:16.942Z,95861.56
2022-10-28T11:37:44.992Z,95849.34
2022-10-28T11:41:11.434Z,95853.47
2022-10-28T11:44:35.018Z,95838.59
2022-10-28T11:48:15.153Z,95841.06
2022-10-28T11:51:40.277Z,95836.41
2022-10-28T11:55:07.927Z,95838.56
2022-10-28T11:58:32.551Z,95829.09
2022-10-28T12:01:58.325Z,95831.03
2022-10-28T12:05:19.277Z,95832.22
2022-10-28T12:08:45.061Z,95825.69
2022-10-28T12:12:11.222Z,95818.13
2022-10-28T12:15:29.928Z,95813.69
2022-10-28T12:18:53.786Z,95813.00
2022-10-28T12:22:12.182Z,95808.34
2022-10-28T12:25:26.420Z,95805.47
2022-10-28T12:28:44.876Z,95797.31
2022-10-28T12:32:01.620Z,95806.66
2022-10-28T12:35:20.109Z,95804.94
2022-10-28T12:38:39.418Z,95800.84
2022-10-28T12:42:01.045Z,95798.16
2022-10-28T12:45:16.582Z,95802.50
2022-10-28T12:48:34.902Z,95796.28
2022-10-28T12:51:45.387Z,95783.44
2022-10-28T12:55:02.850Z,95787.59
2022-10-28T12:58:19.589Z,95776.78
2022-10-28T13:01:31.879Z,95783.63
2022-10-28T13:04:41.741Z,95784.81
2022-10-28T13:08:20.435Z,95780.22
2022-10-28T13:12:40.150Z,95783.50
2022-10-28T13:16:10.137Z,95775.19
2022-10-28T13:19:54.812Z,95782.97
2022-10-28T13:23:21.244Z,95777.63
2022-10-28T13:26:33.928Z,95781.41
2022-10-28T13:29:45.167Z,95779.56
2022-10-28T13:33:06.457Z,95774.09
2022-10-28T13:36:22.174Z,95778.28
2022-10-28T13:39:46.483Z,95773.13
2022-10-28T13:42:55.257Z,95779.59
2022-10-28T13:46:03.882Z,95780.22
2022-10-28T13:49:26.360Z,95775.88
2022-10-28T13:52:53.970Z,95770.81
2022-10-28T13:56:46.033Z,95770.41
2022-10-28T14:00:02.757Z,95776.34
2022-10-28T14:03:21.059Z,95778.38
2022-10-28T14:06:37.517Z,95772.06
2022-10-28T14:09:46.543Z,95780.00
2022-10-28T14:13:01.137Z,95776.53
2022-10-28T14:16:29.196Z,95777.81
2022-10-28T14:19:37.876Z,95774.38
2022-10-28T14:22:46.950Z,95780.75
2022-10-28T14:26:05.441Z,95784.03
2022-10-28T14:29:30.202Z,95780.69
2022-10-28T14:32:45.293Z,95778.84
2022-10-28T14:36:28.538Z,95777.72
2022-10-28T14:39:45.065Z,95784.72
2022-10-28T14:43:19.376Z,95786.31
2022-10-28T14:46:49.215Z,95781.41
2022-10-28T14:50:03.241Z,95780.50
2022-10-28T14:53:23.824Z,95773.53
2022-10-28T14:56:33.574Z,95778.31
2022-10-28T14:59:45.491Z,95776.47
2022-10-28T15:02:56.651Z,95782.03
2022-10-28T15:06:39.055Z,95779.44
2022-10-28T15:09:53.541Z,95769.72
2022-10-28T15:13:03.640Z,95776.06
2022-10-28T15:16:23.144Z,95780.53
2022-10-28T15:19:38.491Z,95776.59
2022-10-28T15:22:46.905Z,95778.19
2022-10-28T15:26:07.730Z,95782.34
2022-10-28T15:29:18.107Z,95785.31
2022-10-28T15:32:33.824Z,95782.88
2022-10-28T15:35:43.886Z,95775.25
2022-10-28T15:39:05.633Z,95791.66
2022-10-28T15:42:33.030Z,95785.78
2022-10-28T15:45:42.834Z,95781.19
2022-10-28T15:48:53.751Z,95788.28
2022-10-28T15:52:31.733Z,95784.47
2022-10-28T15:59:21.356Z,95792.09
2022-10-28T16:02:43.064Z,95793.09
2022-10-28T16:05:54.720Z,95791.31
2022-10-28T16:13:41.144Z,95784.53
2022-10-28T16:20:44.371Z,95796.09
2022-10-28T16:24:07.949Z,95791.06
2022-10-28T16:27:21.469Z,95791.38
2022-10-28T16:30:31.803Z,95780.16
2022-10-28T16:33:40.440Z,95787.31
2022-10-28T16:36:48.989Z,95785.25
2022-10-28T16:40:30.995Z,95778.75
2022-10-28T16:43:43.905Z,95766.13
2022-10-28T16:46:53.854Z,95781.25
2022-10-28T16:50:02.357Z,95775.94
2022-10-28T16:53:15.105Z,95784.69
2022-10-28T16:56:24.107Z,95791.81
2022-10-28T16:59:32.880Z,95796.81
2022-10-28T17:02:43.280Z,95789.03
2022-10-28T17:05:52.036Z,95791.16
2022-10-28T17:09:03.207Z,95789.59
2022-10-28T17:12:16.035Z,95792.06
2022-10-28T17:15:24.545Z,95793.56
2022-10-28T17:18:34.314Z,95792.38
2022-10-28T17:21:43.677Z,95797.31
2022-10-28T17:24:52.515Z,95795.88
2022-10-28T17:28:01.672Z,95793.00
2022-10-28T17:31:14.508Z,95795.13
2022-10-28T17:34:27.452Z,95801.53
2022-10-28T17:37:59.778Z,95806.69
2022-10-28T17:41:08.230Z,95802.78
2022-10-28T17:44:17.871Z,95805.44
2022-10-28T17:47:26.988Z,95804.44
2022-10-28T17:50:39.685Z,95801.72
2022-10-28T17:53:49.172Z,95805.84
2022-10-28T17:56:58.362Z,95797.53
2022-10-28T18:00:08.814Z,95803.28
2022-10-28T18:03:20.812Z,95802.81
2022-10-28T18:06:31.002Z,95807.16
2022-10-28T18:09:40.553Z,95795.59
2022-10-28T18:12:52.216Z,95801.75
2022-10-28T18:16:05.678Z,95804.00
2022-10-28T18:19:15.344Z,95803.00
2022-10-28T18:25:38.937Z,95804.91
2022-10-28T18:28:48.974Z,95805.28
2022-10-28T18:31:57.607Z,95806.13
2022-10-28T18:35:07.165Z,95803.91
2022-10-28T18:38:17.095Z,95804.31
2022-10-28T18:41:43.424Z,95807.34
2022-10-28T18:45:31.674Z,95807.94
2022-10-28T18:48:41.987Z,95806.03
2022-10-28T18:51:50.664Z,95807.94
2022-10-28T18:55:01.163Z,95810.38
2022-10-28T18:58:11.665Z,95807.75
2022-10-28T19:01:25.419Z,95806.94
2022-10-28T19:04:34.169Z,95804.66
2022-10-28T19:07:42.748Z,95805.28
2022-10-28T19:10:58.333Z,95801.97
2022-10-28T19:14:08.501Z,95805.50
2022-10-28T19:17:17.047Z,95809.00
2022-10-28T19:20:26.085Z,95804.91
2022-10-28T19:23:34.708Z,95807.78
2022-10-28T19:26:44.690Z,95810.88
2022-10-28T19:29:53.050Z,95819.72
2022-10-28T19:33:01.599Z,95805.75
2022-10-28T19:36:17.590Z,95815.66
2022-10-28T19:40:06.798Z,95812.78
2022-10-28T19:44:07.985Z,95806.19
2022-10-28T19:48:05.290Z,95816.91
2022-10-28T20:00:01.638Z,95819.25
2022-10-28T20:03:21.356Z,95812.81
2022-10-28T20:06:35.754Z,95815.50
2022-10-28T20:09:44.239Z,95810.19
2022-10-28T20:12:54.134Z,95815.94
2022-10-28T20:16:42.669Z,95825.63
2022-10-28T20:19:52.154Z,95826.91
2022-10-28T20:23:00.833Z,95836.59
2022-10-28T20:26:10.718Z,95838.47
2022-10-28T20:29:19.512Z,95834.31
2022-10-28T20:32:29.671Z,95834.22
2022-10-28T20:35:38.172Z,95831.38
2022-10-28T20:38:46.618Z,95835.13
2022-10-28T20:41:55.186Z,95836.44
2022-10-28T20:45:03.678Z,95845.03
2022-10-28T20:48:13.539Z,95833.25
2022-10-28T20:51:23.621Z,95838.81
2022-10-28T20:54:32.442Z,95832.03
2022-10-28T20:57:42.287Z,95831.59
2022-10-28T21:06:00.076Z,95830.78
2022-10-28T21:09:09.394Z,95822.75
2022-10-28T21:12:17.879Z,95825.03
2022-10-28T21:15:26.069Z,95822.38
2022-10-28T21:18:38.600Z,95825.53
2022-10-28T21:21:50.321Z,95825.97
2022-10-28T21:24:59.014Z,95826.34
2022-10-28T21:28:09.051Z,95818.13
2022-10-28T21:31:19.056Z,95813.59
2022-10-28T21:43:09.929Z,95821.00
2022-10-28T21:46:26.875Z,95822.03
2022-10-28T21:49:35.586Z,95821.41
2022-10-28T21:52:44.058Z,95819.78
2022-10-28T21:56:05.995Z,95819.34
2022-10-28T22:03:10.227Z,95817.75
2022-10-28T22:06:19.328Z,95820.66
2022-10-28T22:09:27.652Z,95830.81
2022-10-28T22:12:37.544Z,95822.56
2022-10-28T22:15:45.993Z,95824.59
2022-10-28T22:18:54.697Z,95828.72
2022-10-28T22:22:03.230Z,95821.94
2022-10-28T22:25:11.786Z,95819.63
2022-10-28T22:28:21.531Z,95808.53
2022-10-28T22:31:32.410Z,95810.56
2022-10-28T22:34:40.596Z,95798.81
2022-10-28T22:37:48.971Z,95804.19
2022-10-28T22:41:05.809Z,95800.06
2022-10-28T22:44:15.589Z,95804.38
2022-10-28T22:47:24.163Z,95797.97
2022-10-28T22:50:32.381Z,95794.03
2022-10-28T22:53:41.494Z,95807.22
2022-10-28T22:56:49.810Z,95796.47
2022-10-28T22:59:59.370Z,95805.31
2022-10-28T23:03:07.953Z,95797.28
2022-10-28T23:06:19.671Z,95804.06
2022-10-28T23:09:28.069Z,95802.41
2022-10-28T23:12:36.642Z,95804.00
2022-10-28T23:15:46.736Z,95796.75
2022-10-28T23:18:55.396Z,95799.78
2022-10-28T23:22:03.730Z,95795.66
2022-10-28T23:25:12.206Z,95801.16
2022-10-28T23:28:20.638Z,95797.84
2022-10-28T23:31:30.468Z,95798.41
2022-10-28T23:34:38.748Z,95794.44
2022-10-28T23:37:46.965Z,95797.19
2022-10-28T23:40:57.524Z,95794.03
2022-10-28T23:44:06.158Z,95800.81
2022-10-28T23:47:15.846Z,95811.00
2022-10-28T23:50:24.057Z,95809.31
2022-10-28T23:53:32.751Z,95801.63
2022-10-28T23:56:41.200Z,95806.31
2022-10-28T23:59:49.496Z,95806.44
